createdAt,value
2023-03-02T00:00:19.508Z,35.70
2023-03-02T00:01:19.529Z,35.77
2023-03-02T00:02:19.567Z,35.72
2023-03-02T00:03:19.616Z,35.72
2023-03-02T00:04:18.587Z,35.74
2023-03-02T00:05:19.632Z,35.71
2023-03-02T00:06:19.635Z,35.66
2023-03-02T00:07:18.636Z,35.72
2023-03-02T00:08:19.633Z,35.78
2023-03-02T00:09:19.676Z,35.73
2023-03-02T00:10:19.706Z,35.66
2023-03-02T00:11:19.705Z,35.75
2023-03-02T00:12:19.778Z,35.69
2023-03-02T00:13:19.747Z,35.72
2023-03-02T00:14:19.752Z,35.81
2023-03-02T00:15:19.774Z,35.66
2023-03-02T00:16:19.826Z,35.67
2023-03-02T00:17:19.816Z,35.71
2023-03-02T00:18:19.842Z,35.74
2023-03-02T00:19:19.846Z,35.62
2023-03-02T00:20:18.866Z,35.74
2023-03-02T00:21:18.871Z,35.73
2023-03-02T00:22:18.906Z,35.66
2023-03-02T00:23:18.953Z,35.61
2023-03-02T00:24:19.931Z,35.62
2023-03-02T00:25:19.952Z,35.68
2023-03-02T00:26:19.999Z,35.68
2023-03-02T00:27:18.989Z,35.72
2023-03-02T00:28:20.065Z,35.66
2023-03-02T00:29:20.062Z,35.62
2023-03-02T00:30:20.064Z,35.62
2023-03-02T00:31:20.176Z,35.58
2023-03-02T00:32:20.232Z,35.61
2023-03-02T00:33:20.128Z,35.92
2023-03-02T00:34:19.164Z,35.75
2023-03-02T00:35:20.239Z,35.66
2023-03-02T00:36:20.194Z,35.61
2023-03-02T00:37:20.623Z,35.65
2023-03-02T00:38:20.240Z,35.50
2023-03-02T00:39:20.423Z,35.57
2023-03-02T00:40:20.331Z,35.50
2023-03-02T00:41:20.313Z,35.60
2023-03-02T00:42:20.381Z,35.50
2023-03-02T00:43:20.356Z,35.51
2023-03-02T00:44:20.388Z,35.68
2023-03-02T00:45:20.470Z,35.60
2023-03-02T00:46:20.485Z,35.47
2023-03-02T00:47:19.452Z,35.56
2023-03-02T00:48:19.489Z,35.54
2023-03-02T00:49:20.490Z,35.54
2023-03-02T00:50:20.567Z,35.51
2023-03-02T00:51:20.550Z,35.54
2023-03-02T00:52:20.577Z,35.66
2023-03-02T00:53:20.625Z,35.52
2023-03-02T00:54:19.631Z,35.52
2023-03-02T00:55:20.700Z,35.51
2023-03-02T00:56:20.683Z,35.47
2023-03-02T00:57:20.726Z,35.46
2023-03-02T00:58:20.770Z,35.56
2023-03-02T00:59:20.762Z,35.54
2023-03-02T01:00:19.770Z,35.50
2023-03-02T01:01:20.856Z,35.50
2023-03-02T01:02:20.874Z,35.48
2023-03-02T01:03:20.899Z,35.47
2023-03-02T01:04:20.889Z,35.44
2023-03-02T01:05:20.924Z,35.53
2023-03-02T01:06:19.974Z,35.57
2023-03-02T01:07:20.972Z,35.68
2023-03-02T01:08:20.028Z,35.47
2023-03-02T01:09:21.090Z,35.51
2023-03-02T01:10:21.077Z,35.49
2023-03-02T01:11:21.093Z,35.46
2023-03-02T01:12:21.133Z,35.47
2023-03-02T01:13:21.197Z,35.42
2023-03-02T01:14:21.190Z,35.39
2023-03-02T01:15:21.216Z,35.49
2023-03-02T01:16:21.304Z,35.44
2023-03-02T01:17:21.315Z,35.43
2023-03-02T01:18:21.307Z,35.47
2023-03-02T01:19:21.313Z,35.43
2023-03-02T01:20:21.375Z,35.44
2023-03-02T01:21:21.394Z,35.62
2023-03-02T01:22:20.408Z,35.37
2023-03-02T01:23:21.460Z,35.39
2023-03-02T01:24:21.464Z,35.34
2023-03-02T01:25:21.480Z,35.38
2023-03-02T01:26:21.531Z,35.32
2023-03-02T01:27:21.562Z,35.35
2023-03-02T01:28:20.579Z,35.39
2023-03-02T01:29:21.617Z,35.40
2023-03-02T01:30:21.665Z,35.39
2023-03-02T01:31:21.721Z,35.36
2023-03-02T01:32:20.774Z,35.49
2023-03-02T01:33:21.789Z,35.36
2023-03-02T01:34:21.771Z,35.39
2023-03-02T01:35:21.939Z,35.40
2023-03-02T01:36:20.817Z,35.44
2023-03-02T01:37:21.867Z,35.35
2023-03-02T01:38:21.963Z,35.32
2023-03-02T01:39:21.926Z,35.29
2023-03-02T01:40:21.944Z,35.29
2023-03-02T01:41:21.969Z,35.33
2023-03-02T01:42:21.994Z,35.38
2023-03-02T01:43:22.052Z,35.22
2023-03-02T01:44:22.126Z,35.33
2023-03-02T01:45:22.171Z,35.35
2023-03-02T01:46:22.173Z,35.28
2023-03-02T01:47:21.146Z,35.29
2023-03-02T01:48:22.228Z,35.41
2023-03-02T01:49:22.223Z,35.38
2023-03-02T01:50:22.241Z,35.38
2023-03-02T01:51:22.287Z,35.49
2023-03-02T01:52:22.345Z,35.49
2023-03-02T01:53:22.330Z,35.24
2023-03-02T01:54:22.388Z,35.25
2023-03-02T01:55:21.444Z,35.24
2023-03-02T01:56:21.450Z,35.35
2023-03-02T01:57:22.477Z,35.30
2023-03-02T01:58:22.556Z,35.25
2023-03-02T01:59:21.559Z,35.21
2023-03-02T02:00:22.591Z,35.22
2023-03-02T02:01:22.709Z,35.36
2023-03-02T02:02:22.674Z,35.30
2023-03-02T02:03:22.696Z,35.17
2023-03-02T02:04:22.862Z,35.19
2023-03-02T02:05:22.758Z,35.16
2023-03-02T02:06:22.795Z,35.24
2023-03-02T02:07:22.841Z,35.33
2023-03-02T02:08:22.898Z,35.32
2023-03-02T02:09:22.947Z,35.60
2023-03-02T02:10:22.990Z,35.29
2023-03-02T02:11:22.993Z,35.22
2023-03-02T02:12:23.046Z,35.18
2023-03-02T02:13:23.084Z,35.16
2023-03-02T02:14:22.176Z,35.09
2023-03-02T02:15:23.181Z,35.18
2023-03-02T02:16:23.322Z,35.14
2023-03-02T02:17:23.278Z,35.22
2023-03-02T02:18:23.273Z,35.33
2023-03-02T02:19:23.322Z,35.42
2023-03-02T02:20:23.350Z,35.37
2023-03-02T02:21:23.372Z,35.17
2023-03-02T02:22:23.403Z,35.11
2023-03-02T02:23:23.473Z,35.12
2023-03-02T02:24:23.493Z,35.17
2023-03-02T02:25:23.519Z,35.24
2023-03-02T02:26:23.569Z,35.14
2023-03-02T02:27:23.624Z,35.33
2023-03-02T02:28:22.665Z,35.18
2023-03-02T02:29:23.697Z,35.35
2023-03-02T02:30:22.746Z,35.19
2023-03-02T02:31:23.903Z,35.21
2023-03-02T02:32:23.052Z,35.28
2023-03-02T02:33:22.860Z,35.19
2023-03-02T02:34:23.954Z,35.29
2023-03-02T02:35:24.027Z,35.37
2023-03-02T02:36:24.025Z,35.24
2023-03-02T02:37:24.066Z,35.19
2023-03-02T02:38:23.094Z,35.29
2023-03-02T02:39:24.145Z,35.13
2023-03-02T02:40:24.229Z,35.09
2023-03-02T02:41:24.238Z,35.13
2023-03-02T02:42:24.328Z,35.13
2023-03-02T02:43:24.336Z,35.01
2023-03-02T02:44:24.374Z,35.10
2023-03-02T02:45:24.425Z,35.29
2023-03-02T02:46:24.494Z,35.11
2023-03-02T02:47:24.504Z,35.18
2023-03-02T02:48:24.574Z,35.29
2023-03-02T02:49:24.593Z,35.13
2023-03-02T02:50:24.644Z,35.10
2023-03-02T02:51:23.675Z,35.23
2023-03-02T02:52:24.729Z,35.20
2023-03-02T02:53:24.777Z,35.32
2023-03-02T02:54:23.799Z,35.13
2023-03-02T02:55:24.847Z,35.13
2023-03-02T02:56:23.911Z,35.07
2023-03-02T02:57:24.924Z,35.15
2023-03-02T02:58:25.032Z,35.13
2023-03-02T02:59:25.033Z,35.13
2023-03-02T03:00:25.053Z,35.07
2023-03-02T03:01:25.201Z,35.13
2023-03-02T03:02:24.149Z,35.21
2023-03-02T03:03:24.189Z,35.05
2023-03-02T03:04:25.306Z,35.02
2023-03-02T03:05:24.304Z,35.35
2023-03-02T03:06:25.362Z,35.28
2023-03-02T03:07:25.396Z,35.28
2023-03-02T03:08:24.443Z,35.44
2023-03-02T03:09:25.570Z,35.14
2023-03-02T03:10:24.529Z,35.06
2023-03-02T03:11:25.555Z,35.09
2023-03-02T03:12:25.643Z,35.07
2023-03-02T03:13:25.659Z,35.06
2023-03-02T03:14:24.652Z,35.08
2023-03-02T03:15:24.722Z,34.98
2023-03-02T03:16:25.784Z,34.90
2023-03-02T03:17:25.765Z,34.79
2023-03-02T03:18:25.748Z,34.84
2023-03-02T03:19:24.790Z,34.86
2023-03-02T03:20:25.810Z,34.75
2023-03-02T03:21:25.813Z,34.74
2023-03-02T03:22:25.824Z,34.61
2023-03-02T03:23:25.817Z,34.65
2023-03-02T03:24:25.822Z,34.56
2023-03-02T03:25:25.848Z,34.56
2023-03-02T03:26:25.872Z,34.51
2023-03-02T03:27:24.826Z,34.45
2023-03-02T03:28:25.834Z,34.42
2023-03-02T03:29:25.937Z,34.36
2023-03-02T03:30:25.871Z,34.32
2023-03-02T03:31:25.863Z,34.27
2023-03-02T03:32:25.934Z,34.24
2023-03-02T03:33:25.877Z,34.27
2023-03-02T03:34:25.860Z,34.21
2023-03-02T03:35:25.900Z,34.16
2023-03-02T03:36:25.859Z,34.10
2023-03-02T03:37:25.844Z,34.14
2023-03-02T03:38:25.903Z,34.04
2023-03-02T03:39:25.849Z,34.04
2023-03-02T03:40:25.882Z,34.02
2023-03-02T03:41:25.879Z,34.00
2023-03-02T03:42:25.888Z,33.95
2023-03-02T03:43:25.924Z,33.92
2023-03-02T03:44:25.993Z,33.92
2023-03-02T03:45:26.016Z,33.89
2023-03-02T03:46:26.118Z,33.85
2023-03-02T03:47:25.085Z,33.80
2023-03-02T03:48:26.172Z,33.78
2023-03-02T03:49:26.204Z,33.87
2023-03-02T03:50:26.287Z,33.78
2023-03-02T03:51:26.369Z,33.71
2023-03-02T03:52:26.401Z,33.71
2023-03-02T03:53:26.446Z,33.62
2023-03-02T03:54:26.557Z,33.64
2023-03-02T03:55:25.569Z,33.62
2023-03-02T03:56:26.648Z,33.63
2023-03-02T03:57:26.690Z,33.60
2023-03-02T03:58:26.908Z,33.58
2023-03-02T03:59:26.805Z,33.56
2023-03-02T04:00:26.883Z,33.51
2023-03-02T04:01:26.972Z,33.45
2023-03-02T04:02:27.079Z,33.51
2023-03-02T04:03:27.056Z,33.48
2023-03-02T04:04:27.114Z,33.48
2023-03-02T04:05:27.153Z,33.46
2023-03-02T04:06:26.215Z,33.44
2023-03-02T04:07:27.259Z,33.42
2023-03-02T04:08:27.334Z,33.43
2023-03-02T04:09:27.418Z,33.36
2023-03-02T04:10:27.483Z,33.42
2023-03-02T04:11:27.513Z,33.40
2023-03-02T04:12:27.571Z,33.33
2023-03-02T04:13:27.630Z,33.38
2023-03-02T04:14:26.701Z,33.30
2023-03-02T04:15:27.819Z,33.31
2023-03-02T04:16:26.821Z,33.28
2023-03-02T04:17:27.871Z,33.28
2023-03-02T04:18:27.936Z,33.25
2023-03-02T04:19:27.976Z,33.31
2023-03-02T04:20:28.028Z,33.25
2023-03-02T04:21:28.076Z,33.26
2023-03-02T04:22:28.146Z,33.20
2023-03-02T04:23:28.186Z,33.19
2023-03-02T04:24:28.273Z,33.21
2023-03-02T04:25:28.323Z,33.18
2023-03-02T04:26:28.362Z,33.15
2023-03-02T04:27:27.387Z,33.06
2023-03-02T04:28:28.492Z,33.14
2023-03-02T04:29:28.531Z,33.07
2023-03-02T04:30:28.554Z,33.10
2023-03-02T04:31:28.744Z,33.09
2023-03-02T04:32:28.722Z,33.04
2023-03-02T04:33:28.731Z,33.06
2023-03-02T04:34:28.797Z,33.03
2023-03-02T04:35:28.949Z,33.02
2023-03-02T04:36:27.877Z,32.99
2023-03-02T04:37:28.953Z,33.14
2023-03-02T04:38:29.050Z,33.02
2023-03-02T04:39:28.074Z,33.01
2023-03-02T04:40:28.153Z,33.02
2023-03-02T04:41:28.198Z,32.98
2023-03-02T04:42:29.306Z,32.98
2023-03-02T04:43:29.289Z,33.04
2023-03-02T04:44:29.322Z,32.95
2023-03-02T04:45:29.407Z,32.97
2023-03-02T04:46:29.488Z,33.00
2023-03-02T04:47:29.466Z,33.00
2023-03-02T04:48:28.548Z,32.98
2023-03-02T04:49:28.568Z,32.98
2023-03-02T04:50:28.680Z,32.97
2023-03-02T04:51:29.674Z,32.95
2023-03-02T04:52:29.721Z,32.92
2023-03-02T04:53:29.748Z,32.95
2023-03-02T04:54:29.816Z,32.95
2023-03-02T04:55:29.842Z,32.90
2023-03-02T04:56:30.114Z,32.86
2023-03-02T04:57:28.950Z,32.94
2023-03-02T04:58:30.000Z,32.96
2023-03-02T04:59:30.021Z,32.92
2023-03-02T05:00:31.626Z,32.84
2023-03-02T05:01:30.050Z,32.89
2023-03-02T05:02:30.123Z,32.88
2023-03-02T05:03:29.054Z,32.95
2023-03-02T05:04:30.124Z,32.88
2023-03-02T05:05:30.021Z,32.88
2023-03-02T05:06:29.053Z,32.82
2023-03-02T05:07:30.017Z,32.80
2023-03-02T05:08:28.996Z,32.75
2023-03-02T05:09:28.991Z,32.75
2023-03-02T05:10:30.032Z,32.79
2023-03-02T05:11:29.966Z,32.81
2023-03-02T05:12:28.960Z,32.79
2023-03-02T05:13:29.977Z,32.77
2023-03-02T05:14:30.014Z,32.83
2023-03-02T05:15:28.941Z,32.78
2023-03-02T05:16:30.073Z,32.85
2023-03-02T05:17:28.938Z,32.79
2023-03-02T05:18:29.946Z,32.80
2023-03-02T05:19:28.898Z,32.78
2023-03-02T05:20:29.969Z,32.74
2023-03-02T05:21:29.885Z,32.81
2023-03-02T05:22:28.889Z,32.83
2023-03-02T05:23:29.881Z,32.71
2023-03-02T05:24:28.890Z,32.70
2023-03-02T05:25:29.892Z,32.76
2023-03-02T05:26:30.006Z,32.72
2023-03-02T05:27:29.849Z,32.75
2023-03-02T05:28:29.832Z,32.73
2023-03-02T05:29:29.852Z,32.73
2023-03-02T05:30:29.880Z,32.77
2023-03-02T05:31:29.927Z,32.74
2023-03-02T05:32:29.902Z,32.75
2023-03-02T05:33:29.871Z,32.72
2023-03-02T05:34:29.921Z,32.65
2023-03-02T05:35:29.987Z,32.79
2023-03-02T05:36:30.001Z,32.77
2023-03-02T05:37:29.023Z,32.70
2023-03-02T05:38:30.054Z,32.73
2023-03-02T05:39:30.074Z,32.76
2023-03-02T05:40:29.125Z,32.76
2023-03-02T05:41:29.190Z,32.65
2023-03-02T05:42:30.194Z,32.70
2023-03-02T05:43:29.219Z,32.66
2023-03-02T05:44:30.261Z,32.69
2023-03-02T05:45:30.297Z,32.68
2023-03-02T05:46:30.492Z,32.68
2023-03-02T05:47:30.368Z,32.59
2023-03-02T05:48:29.429Z,32.64
2023-03-02T05:49:30.447Z,32.61
2023-03-02T05:50:32.124Z,32.65
2023-03-02T05:51:30.673Z,32.61
2023-03-02T05:52:30.711Z,32.65
2023-03-02T05:53:30.751Z,32.72
2023-03-02T05:54:29.827Z,32.63
2023-03-02T05:55:30.844Z,32.59
2023-03-02T05:56:31.194Z,32.65
2023-03-02T05:57:29.901Z,32.57
2023-03-02T05:58:30.963Z,32.65
2023-03-02T05:59:30.970Z,32.67
2023-03-02T06:00:31.061Z,32.58
2023-03-02T06:01:31.570Z,32.69
2023-03-02T06:02:31.122Z,32.54
2023-03-02T06:04:31.213Z,32.59
2023-03-02T06:05:31.632Z,32.57
2023-03-02T06:06:33.946Z,32.58
2023-03-02T06:07:31.389Z,32.64
2023-03-02T06:08:31.422Z,32.53
2023-03-02T06:09:30.291Z,32.59
2023-03-02T06:10:31.592Z,32.55
2023-03-02T06:11:31.427Z,32.54
2023-03-02T06:12:31.237Z,32.54
2023-03-02T06:13:31.226Z,32.57
2023-03-02T06:14:31.337Z,32.57
2023-03-02T06:15:31.247Z,32.53
2023-03-02T06:16:31.854Z,32.58
2023-03-02T06:17:32.132Z,32.63
2023-03-02T06:18:31.217Z,32.56
2023-03-02T06:19:31.183Z,32.56
2023-03-02T06:20:31.234Z,32.53
2023-03-02T06:21:30.172Z,32.62
2023-03-02T06:22:31.227Z,32.53
2023-03-02T06:23:30.359Z,32.55
2023-03-02T06:24:31.449Z,32.55
2023-03-02T06:25:31.226Z,32.54
2023-03-02T06:26:30.534Z,32.58
2023-03-02T06:27:37.597Z,32.64
2023-03-02T06:28:30.099Z,32.64
2023-03-02T06:29:31.090Z,32.65
2023-03-02T06:30:31.088Z,32.80
2023-03-02T06:31:31.156Z,32.91
2023-03-02T06:32:31.119Z,33.07
2023-03-02T06:33:31.056Z,33.04
2023-03-02T06:34:30.068Z,33.16
2023-03-02T06:35:31.248Z,33.06
2023-03-02T06:36:30.160Z,33.07
2023-03-02T06:37:31.019Z,33.12
2023-03-02T06:38:31.013Z,33.11
2023-03-02T06:39:31.034Z,33.44
2023-03-02T06:40:31.001Z,33.52
2023-03-02T06:41:31.352Z,34.78
2023-03-02T06:42:30.985Z,35.26
2023-03-02T06:43:30.992Z,35.49
2023-03-02T06:44:30.996Z,34.99
2023-03-02T06:45:29.965Z,35.07
2023-03-02T06:46:31.402Z,35.42
2023-03-02T06:47:29.948Z,35.67
2023-03-02T06:48:30.978Z,35.58
2023-03-02T06:49:30.940Z,30.89
2023-03-02T06:50:30.966Z,27.73
2023-03-02T06:51:30.937Z,27.78
2023-03-02T06:52:30.930Z,27.96
2023-03-02T06:53:30.916Z,30.73
2023-03-02T06:54:30.918Z,30.71
2023-03-02T06:55:29.914Z,32.05
2023-03-02T06:56:29.889Z,32.68
2023-03-02T06:57:30.889Z,33.26
2023-03-02T06:58:30.906Z,33.40
2023-03-02T06:59:30.926Z,34.20
2023-03-02T07:00:29.944Z,34.24
2023-03-02T07:01:31.414Z,33.82
2023-03-02T07:02:31.015Z,33.66
2023-03-02T07:03:30.058Z,34.06
2023-03-02T07:04:31.037Z,33.83
2023-03-02T07:05:31.089Z,34.29
2023-03-02T07:06:31.158Z,34.09
2023-03-02T07:07:30.199Z,34.24
2023-03-02T07:08:31.217Z,34.30
2023-03-02T07:09:30.239Z,34.12
2023-03-02T07:10:31.280Z,34.10
2023-03-02T07:11:31.768Z,34.00
2023-03-02T07:12:31.347Z,33.85
2023-03-02T07:13:31.393Z,33.75
2023-03-02T07:14:31.403Z,33.59
2023-03-02T07:15:31.455Z,33.49
2023-03-02T07:16:31.524Z,33.43
2023-03-02T07:19:31.596Z,33.37
2023-03-02T07:20:31.615Z,33.27
2023-03-02T07:21:31.014Z,33.27
2023-03-02T07:22:30.705Z,33.23
2023-03-02T07:23:31.741Z,33.22
2023-03-02T07:24:31.761Z,33.23
2023-03-02T07:25:31.818Z,33.16
2023-03-02T07:26:30.844Z,33.10
2023-03-02T07:27:30.878Z,33.09
2023-03-02T07:28:31.942Z,33.06
2023-03-02T07:29:31.964Z,33.05
2023-03-02T07:30:32.068Z,33.11
2023-03-02T07:31:31.486Z,33.10
2023-03-02T07:32:32.211Z,32.95
2023-03-02T07:33:32.090Z,33.01
2023-03-02T07:35:32.182Z,32.91
2023-03-02T07:36:32.188Z,32.88
2023-03-02T07:37:32.225Z,32.86
2023-03-02T07:38:31.264Z,32.82
2023-03-02T07:39:31.280Z,32.84
2023-03-02T07:40:32.272Z,32.85
2023-03-02T07:42:31.326Z,32.84
2023-03-02T07:43:32.368Z,32.76
2023-03-02T07:44:31.378Z,32.69
2023-03-02T07:45:32.389Z,32.76
2023-03-02T07:46:32.507Z,32.71
2023-03-02T07:47:32.436Z,32.67
2023-03-02T07:48:32.454Z,33.01
2023-03-02T07:50:32.494Z,28.19
2023-03-02T07:51:33.040Z,29.50
2023-03-02T07:52:32.560Z,31.76
2023-03-02T07:53:32.568Z,31.26
2023-03-02T07:54:31.600Z,32.02
2023-03-02T07:55:31.628Z,32.76
2023-03-02T07:56:31.677Z,33.88
2023-03-02T07:57:32.751Z,34.07
2023-03-02T07:58:32.664Z,34.27
2023-03-02T07:59:32.664Z,35.36
2023-03-02T08:00:32.722Z,36.09
2023-03-02T08:01:33.095Z,36.65
2023-03-02T08:02:31.819Z,36.31
2023-03-02T08:03:32.804Z,35.99
2023-03-02T08:04:32.821Z,35.49
2023-03-02T08:05:32.861Z,35.28
2023-03-02T08:06:31.913Z,34.83
2023-03-02T08:07:31.904Z,34.81
2023-03-02T08:08:32.949Z,34.65
2023-03-02T08:09:31.990Z,34.76
2023-03-02T08:10:32.994Z,34.98
2023-03-02T08:11:32.377Z,34.97
2023-03-02T08:12:33.072Z,35.01
2023-03-02T08:17:32.184Z,35.21
2023-03-02T08:18:32.276Z,35.22
2023-03-02T08:19:33.348Z,35.65
2023-03-02T08:20:33.359Z,35.87
2023-03-02T08:21:33.702Z,31.33
2023-03-02T08:22:33.402Z,31.39
2023-03-02T08:23:33.469Z,31.53
2023-03-02T08:24:32.460Z,32.05
2023-03-02T08:25:33.465Z,32.97
2023-03-02T08:26:33.507Z,33.64
2023-03-02T08:27:33.565Z,34.27
2023-03-02T08:28:32.563Z,34.78
2023-03-02T08:29:33.568Z,35.00
2023-03-02T08:30:33.600Z,35.16
2023-03-02T08:31:33.052Z,35.00
2023-03-02T08:32:32.727Z,35.02
2023-03-02T08:33:33.653Z,35.05
2023-03-02T08:34:33.730Z,34.93
2023-03-02T08:35:33.811Z,34.88
2023-03-02T08:36:34.173Z,34.91
2023-03-02T08:37:33.855Z,34.86
2023-03-02T08:38:32.916Z,34.92
2023-03-02T08:39:33.950Z,34.71
2023-03-02T08:40:34.020Z,34.90
2023-03-02T08:41:34.407Z,34.91
2023-03-02T08:42:34.055Z,35.05
2023-03-02T08:43:34.040Z,35.24
2023-03-02T08:44:34.050Z,35.29
2023-03-02T08:45:34.079Z,35.36
2023-03-02T08:46:34.208Z,35.46
2023-03-02T08:47:34.050Z,35.42
2023-03-02T08:49:34.063Z,35.24
2023-03-02T08:50:33.059Z,35.13
2023-03-02T08:51:33.557Z,35.31
2023-03-02T08:52:34.099Z,35.57
2023-03-02T08:53:34.141Z,35.46
2023-03-02T08:54:34.134Z,35.58
2023-03-02T08:55:34.136Z,35.64
2023-03-02T08:56:33.777Z,35.97
2023-03-02T08:57:34.134Z,35.77
2023-03-02T08:58:34.192Z,35.94
2023-03-02T08:59:34.166Z,36.04
2023-03-02T09:00:34.188Z,35.93
2023-03-02T09:01:34.701Z,35.91
2023-03-02T09:02:33.227Z,36.11
2023-03-02T09:07:34.566Z,36.68
2023-03-02T09:10:34.733Z,36.67
2023-03-02T09:11:35.228Z,36.74
2023-03-02T09:13:34.948Z,36.92
2023-03-02T09:14:34.986Z,37.00
2023-03-02T09:15:34.027Z,37.09
2023-03-02T09:16:35.173Z,37.07
2023-03-02T09:17:35.140Z,37.01
2023-03-02T09:18:35.209Z,37.51
2023-03-02T09:19:35.271Z,37.20
2023-03-02T09:20:34.326Z,37.21
2023-03-02T09:21:34.817Z,37.47
2023-03-02T09:22:35.436Z,37.59
2023-03-02T09:23:35.507Z,37.22
2023-03-02T09:24:35.569Z,37.44
2023-03-02T09:25:35.613Z,37.36
2023-03-02T09:26:34.674Z,37.58
2023-03-02T09:27:34.773Z,37.58
2023-03-02T09:28:34.747Z,37.58
2023-03-02T09:29:35.824Z,37.95
2023-03-02T09:30:35.883Z,37.96
2023-03-02T09:31:36.588Z,37.95
2023-03-02T09:32:35.114Z,38.41
2023-03-02T09:33:36.022Z,37.83
2023-03-02T09:34:36.045Z,38.58
2023-03-02T09:35:36.121Z,38.16
2023-03-02T09:36:35.149Z,38.58
2023-03-02T09:37:36.239Z,37.43
2023-03-02T09:38:36.240Z,37.47
2023-03-02T09:39:36.312Z,37.34
2023-03-02T09:40:35.355Z,37.62
2023-03-02T09:41:36.439Z,38.17
2023-03-02T09:42:43.794Z,37.76
2023-03-02T09:43:36.491Z,37.82
2023-03-02T09:44:36.477Z,37.94
2023-03-02T09:45:36.510Z,38.03
2023-03-02T09:46:36.490Z,37.81
2023-03-02T09:47:36.475Z,37.80
2023-03-02T09:48:36.443Z,37.79
2023-03-02T09:49:36.456Z,37.90
2023-03-02T09:50:36.502Z,37.72
2023-03-02T09:51:36.564Z,37.96
2023-03-02T09:52:36.617Z,37.76
2023-03-02T09:53:35.601Z,37.66
2023-03-02T09:54:36.624Z,37.30
2023-03-02T09:55:36.576Z,37.60
2023-03-02T09:56:36.590Z,37.72
2023-03-02T09:57:36.714Z,37.24
2023-03-02T09:58:36.584Z,37.39
2023-03-02T09:59:36.593Z,37.78
2023-03-02T10:00:37.207Z,37.71
2023-03-02T10:01:36.579Z,37.55
2023-03-02T10:02:36.604Z,37.60
2023-03-02T10:03:36.700Z,37.53
2023-03-02T10:04:36.651Z,37.56
2023-03-02T10:05:36.640Z,37.76
2023-03-02T10:06:36.655Z,37.69
2023-03-02T10:07:36.649Z,37.74
2023-03-02T10:08:36.665Z,37.73
2023-03-02T10:09:36.677Z,38.01
2023-03-02T10:10:36.709Z,37.81
2023-03-02T10:11:36.736Z,37.70
2023-03-02T10:12:36.785Z,38.17
2023-03-02T10:13:36.825Z,38.06
2023-03-02T10:14:36.866Z,38.06
2023-03-02T10:15:35.903Z,38.15
2023-03-02T10:16:37.367Z,38.90
2023-03-02T10:17:37.061Z,38.68
2023-03-02T10:18:37.157Z,38.71
2023-03-02T10:19:37.145Z,39.10
2023-03-02T10:20:37.181Z,38.77
2023-03-02T10:21:37.228Z,38.69
2023-03-02T10:23:37.345Z,38.71
2023-03-02T10:25:37.470Z,39.13
2023-03-02T10:26:37.534Z,39.20
2023-03-02T10:27:37.625Z,39.03
2023-03-02T10:28:36.657Z,38.90
2023-03-02T10:29:37.707Z,38.98
2023-03-02T10:30:37.944Z,39.16
2023-03-02T10:31:37.819Z,39.22
2023-03-02T10:32:36.899Z,40.01
2023-03-02T10:33:37.939Z,39.67
2023-03-02T10:34:38.029Z,39.54
2023-03-02T10:35:38.109Z,39.35
2023-03-02T10:36:38.316Z,39.63
2023-03-02T10:37:37.216Z,39.68
2023-03-02T10:38:38.234Z,39.68
2023-03-02T10:39:38.288Z,39.59
2023-03-02T10:40:37.347Z,39.37
2023-03-02T10:41:39.938Z,39.90
2023-03-02T10:42:37.409Z,39.97
2023-03-02T10:43:38.396Z,40.68
2023-03-02T10:44:38.393Z,40.79
2023-03-02T10:45:38.379Z,40.50
2023-03-02T10:47:38.723Z,40.18
2023-03-02T10:48:40.961Z,40.40
2023-03-02T10:50:37.404Z,40.44
2023-03-02T10:53:38.314Z,40.45
2023-03-02T10:54:38.303Z,40.57
2023-03-02T10:55:37.304Z,40.75
2023-03-02T10:56:38.298Z,40.68
2023-03-02T10:57:38.278Z,40.66
2023-03-02T10:58:38.269Z,40.79
2023-03-02T10:59:38.267Z,40.79
2023-03-02T11:00:38.267Z,40.77
2023-03-02T11:01:38.316Z,40.81
2023-03-02T11:02:38.238Z,40.93
2023-03-02T11:03:38.225Z,40.93
2023-03-02T11:04:38.283Z,40.88
2023-03-02T11:05:38.240Z,40.82
2023-03-02T11:06:38.235Z,40.93
2023-03-02T11:07:38.221Z,40.90
2023-03-02T11:08:38.219Z,40.82
2023-03-02T11:09:38.187Z,40.86
2023-03-02T11:10:37.188Z,40.81
2023-03-02T11:11:38.491Z,40.92
2023-03-02T11:12:37.165Z,40.92
2023-03-02T11:13:38.159Z,40.94
2023-03-02T11:14:38.162Z,40.96
2023-03-02T11:15:38.252Z,40.82
2023-03-02T11:16:37.134Z,40.91
2023-03-02T11:17:37.139Z,40.87
2023-03-02T11:18:37.125Z,40.86
2023-03-02T11:19:38.168Z,40.93
2023-03-02T11:20:37.211Z,40.84
2023-03-02T11:21:38.273Z,40.92
2023-03-02T11:22:38.372Z,40.91
2023-03-02T11:23:38.430Z,40.81
2023-03-02T11:24:38.470Z,40.90
2023-03-02T11:25:38.506Z,40.92
2023-03-02T11:26:38.562Z,40.78
2023-03-02T11:27:38.610Z,40.82
2023-03-02T11:28:38.708Z,40.91
2023-03-02T11:29:37.747Z,40.91
2023-03-02T11:30:37.795Z,40.85
2023-03-02T11:31:38.893Z,40.83
2023-03-02T11:32:38.982Z,40.81
2023-03-02T11:33:39.037Z,40.83
2023-03-02T11:34:39.044Z,40.77
2023-03-02T11:35:39.173Z,40.71
2023-03-02T11:36:39.165Z,40.68
2023-03-02T11:37:39.249Z,40.66
2023-03-02T11:38:39.275Z,40.67
2023-03-02T11:39:46.531Z,40.71
2023-03-02T11:40:41.288Z,40.68
2023-03-02T11:41:39.279Z,40.59
2023-03-02T11:42:39.743Z,40.64
2023-03-02T11:43:39.326Z,40.67
2023-03-02T11:44:39.265Z,40.59
2023-03-02T11:45:39.261Z,40.58
2023-03-02T11:46:39.307Z,40.55
2023-03-02T11:47:39.243Z,40.52
2023-03-02T11:48:38.250Z,40.52
2023-03-02T11:49:39.301Z,40.60
2023-03-02T11:50:39.218Z,40.49
2023-03-02T11:51:47.098Z,40.50
2023-03-02T11:52:39.278Z,40.49
2023-03-02T11:53:38.299Z,40.40
2023-03-02T11:54:39.248Z,40.41
2023-03-02T11:55:39.191Z,40.43
2023-03-02T11:56:39.168Z,40.39
2023-03-02T11:57:39.792Z,40.39
2023-03-02T11:58:39.200Z,40.31
2023-03-02T11:59:39.160Z,40.38
2023-03-02T12:00:38.165Z,40.30
2023-03-02T12:01:39.248Z,40.33
2023-03-02T12:02:39.151Z,40.28
2023-03-02T12:03:38.143Z,40.23
2023-03-02T12:04:39.124Z,40.21
2023-03-02T12:05:39.146Z,40.20
2023-03-02T12:06:39.107Z,40.17
2023-03-02T12:07:39.118Z,40.07
2023-03-02T12:08:39.097Z,40.07
2023-03-02T12:09:39.089Z,40.04
2023-03-02T12:10:39.124Z,39.98
2023-03-02T12:11:39.154Z,39.96
2023-03-02T12:12:38.211Z,39.91
2023-03-02T12:13:39.266Z,39.78
2023-03-02T12:14:39.329Z,39.76
2023-03-02T12:15:39.414Z,39.68
2023-03-02T12:16:38.517Z,39.65
2023-03-02T12:17:39.501Z,39.50
2023-03-02T12:18:38.516Z,39.48
2023-03-02T12:19:39.556Z,39.42
2023-03-02T12:20:39.587Z,39.34
2023-03-02T12:21:39.624Z,39.34
2023-03-02T12:22:39.669Z,39.24
2023-03-02T12:23:39.703Z,39.14
2023-03-02T12:24:39.719Z,39.11
2023-03-02T12:25:39.749Z,39.11
2023-03-02T12:26:39.807Z,39.03
2023-03-02T12:27:39.904Z,39.01
2023-03-02T12:28:39.832Z,38.97
2023-03-02T12:29:39.833Z,38.89
2023-03-02T12:30:39.852Z,38.89
2023-03-02T12:31:39.963Z,38.85
2023-03-02T12:32:39.992Z,38.81
2023-03-02T12:33:39.910Z,38.77
2023-03-02T12:34:38.950Z,38.74
2023-03-02T12:35:39.037Z,38.72
2023-03-02T12:36:38.986Z,38.66
2023-03-02T12:37:40.301Z,38.62
2023-03-02T12:38:39.048Z,38.64
2023-03-02T12:39:39.080Z,38.60
2023-03-02T12:40:40.075Z,38.57
2023-03-02T12:41:40.124Z,38.57
2023-03-02T12:42:39.140Z,38.57
2023-03-02T12:43:39.140Z,38.56
2023-03-02T12:44:40.143Z,38.52
2023-03-02T12:45:39.190Z,38.49
2023-03-02T12:46:39.182Z,38.45
2023-03-02T12:47:39.430Z,38.46
2023-03-02T12:48:40.512Z,38.43
2023-03-02T12:49:40.257Z,38.44
2023-03-02T12:50:40.280Z,38.45
2023-03-02T12:51:39.353Z,38.49
2023-03-02T12:52:40.438Z,38.47
2023-03-02T12:53:39.367Z,38.47
2023-03-02T12:54:40.377Z,38.47
2023-03-02T12:55:40.433Z,38.44
2023-03-02T12:56:40.458Z,38.50
2023-03-02T12:57:40.485Z,38.49
2023-03-02T12:58:40.542Z,38.50
2023-03-02T12:59:40.575Z,38.49
2023-03-02T13:00:40.808Z,38.46
2023-03-02T13:01:40.632Z,38.49
2023-03-02T13:02:40.666Z,38.50
2023-03-02T13:03:40.699Z,38.47
2023-03-02T13:04:39.724Z,38.49
2023-03-02T13:05:39.752Z,38.43
2023-03-02T13:06:40.795Z,38.47
2023-03-02T13:07:40.842Z,38.48
2023-03-02T13:08:40.910Z,38.47
2023-03-02T13:09:47.742Z,38.51
2023-03-02T13:10:41.082Z,38.52
2023-03-02T13:11:39.896Z,38.54
2023-03-02T13:12:40.897Z,38.50
2023-03-02T13:13:40.986Z,38.54
2023-03-02T13:14:40.904Z,38.53
2023-03-02T13:15:39.881Z,38.52
2023-03-02T13:16:40.937Z,38.53